sensor_id;sensor_type;location;lat;lon;timestamp;temperature;humidity
65207;SHT31;58477;48.072;11.970;2024-01-30T00:02:16;-1.01;94.88
65207;SHT31;58477;48.072;11.970;2024-01-30T00:04:42;-1.08;95.19
65207;SHT31;58477;48.072;11.970;2024-01-30T00:07:07;-1.18;95.54
65207;SHT31;58477;48.072;11.970;2024-01-30T00:09:33;-1.01;95.50
65207;SHT31;58477;48.072;11.970;2024-01-30T00:11:59;-1.15;95.34
65207;SHT31;58477;48.072;11.970;2024-01-30T00:14:24;-1.25;95.65
65207;SHT31;58477;48.072;11.970;2024-01-30T00:16:50;-1.38;95.58
65207;SHT31;58477;48.072;11.970;2024-01-30T00:19:16;-1.34;95.79
65207;SHT31;58477;48.072;11.970;2024-01-30T00:21:41;-1.16;95.68
65207;SHT31;58477;48.072;11.970;2024-01-30T00:24:07;-1.16;95.56
65207;SHT31;58477;48.072;11.970;2024-01-30T00:26:32;-1.09;95.78
65207;SHT31;58477;48.072;11.970;2024-01-30T00:28:58;-1.02;95.68
65207;SHT31;58477;48.072;11.970;2024-01-30T00:31:24;-1.08;95.24
65207;SHT31;58477;48.072;11.970;2024-01-30T00:33:49;-1.08;95.42
65207;SHT31;58477;48.072;11.970;2024-01-30T00:36:14;-1.19;95.30
65207;SHT31;58477;48.072;11.970;2024-01-30T00:38:40;-1.06;95.52
65207;SHT31;58477;48.072;11.970;2024-01-30T00:41:07;-0.91;94.83
65207;SHT31;58477;48.072;11.970;2024-01-30T00:43:33;-0.87;94.58
65207;SHT31;58477;48.072;11.970;2024-01-30T00:45:59;-1.13;94.51
65207;SHT31;58477;48.072;11.970;2024-01-30T00:48:24;-1.18;94.90
65207;SHT31;58477;48.072;11.970;2024-01-30T00:50:49;-1.32;95.29
65207;SHT31;58477;48.072;11.970;2024-01-30T00:53:15;-1.31;95.77
65207;SHT31;58477;48.072;11.970;2024-01-30T00:55:40;-1.11;95.17
65207;SHT31;58477;48.072;11.970;2024-01-30T00:58:05;-1.15;95.47
65207;SHT31;58477;48.072;11.970;2024-01-30T01:00:32;-1.36;95.60
65207;SHT31;58477;48.072;11.970;2024-01-30T01:03:00;-1.55;95.99
65207;SHT31;58477;48.072;11.970;2024-01-30T01:05:25;-1.56;96.33
65207;SHT31;58477;48.072;11.970;2024-01-30T01:07:51;-1.73;96.15
65207;SHT31;58477;48.072;11.970;2024-01-30T01:10:17;-1.74;96.98
65207;SHT31;58477;48.072;11.970;2024-01-30T01:12:43;-1.83;96.82
65207;SHT31;58477;48.072;11.970;2024-01-30T01:15:09;-1.74;97.26
65207;SHT31;58477;48.072;11.970;2024-01-30T01:17:35;-1.77;96.61
65207;SHT31;58477;48.072;11.970;2024-01-30T01:20:02;-1.80;96.96
65207;SHT31;58477;48.072;11.970;2024-01-30T01:22:27;-1.84;97.12
65207;SHT31;58477;48.072;11.970;2024-01-30T01:24:53;-1.55;96.72
65207;SHT31;58477;48.072;11.970;2024-01-30T01:27:18;-1.74;96.64
65207;SHT31;58477;48.072;11.970;2024-01-30T01:29:44;-1.80;96.90
65207;SHT31;58477;48.072;11.970;2024-01-30T01:32:10;-1.79;97.36
65207;SHT31;58477;48.072;11.970;2024-01-30T01:34:36;-1.90;97.87
65207;SHT31;58477;48.072;11.970;2024-01-30T01:37:01;-2.07;97.84
65207;SHT31;58477;48.072;11.970;2024-01-30T01:39:27;-2.01;97.73
65207;SHT31;58477;48.072;11.970;2024-01-30T01:41:52;-1.86;97.95
65207;SHT31;58477;48.072;11.970;2024-01-30T01:44:18;-1.97;97.61
65207;SHT31;58477;48.072;11.970;2024-01-30T01:46:44;-2.04;98.25
65207;SHT31;58477;48.072;11.970;2024-01-30T01:49:09;-1.97;98.25
65207;SHT31;58477;48.072;11.970;2024-01-30T01:51:35;-2.08;97.90
65207;SHT31;58477;48.072;11.970;2024-01-30T01:54:04;-2.01;97.95
65207;SHT31;58477;48.072;11.970;2024-01-30T01:56:31;-2.03;97.87
65207;SHT31;58477;48.072;11.970;2024-01-30T01:59:00;-2.07;98.05
65207;SHT31;58477;48.072;11.970;2024-01-30T02:01:27;-1.86;98.00
65207;SHT31;58477;48.072;11.970;2024-01-30T02:03:52;-1.77;97.85
65207;SHT31;58477;48.072;11.970;2024-01-30T02:06:18;-1.67;97.63
65207;SHT31;58477;48.072;11.970;2024-01-30T02:08:44;-1.59;97.15
65207;SHT31;58477;48.072;11.970;2024-01-30T02:11:10;-1.59;97.02
65207;SHT31;58477;48.072;11.970;2024-01-30T02:13:36;-1.73;97.47
65207;SHT31;58477;48.072;11.970;2024-01-30T02:16:02;-1.62;97.80
65207;SHT31;58477;48.072;11.970;2024-01-30T02:18:27;-1.52;97.22
65207;SHT31;58477;48.072;11.970;2024-01-30T02:20:54;-1.60;97.02
65207;SHT31;58477;48.072;11.970;2024-01-30T02:23:20;-1.76;96.89
65207;SHT31;58477;48.072;11.970;2024-01-30T02:25:45;-1.95;97.52
65207;SHT31;58477;48.072;11.970;2024-01-30T02:28:14;-2.07;97.59
65207;SHT31;58477;48.072;11.970;2024-01-30T02:30:40;-2.08;97.85
65207;SHT31;58477;48.072;11.970;2024-01-30T02:33:06;-2.08;98.08
65207;SHT31;58477;48.072;11.970;2024-01-30T02:35:31;-2.11;97.78
65207;SHT31;58477;48.072;11.970;2024-01-30T02:37:57;-2.21;97.98
65207;SHT31;58477;48.072;11.970;2024-01-30T02:40:22;-1.81;98.25
65207;SHT31;58477;48.072;11.970;2024-01-30T02:42:47;-1.90;97.77
65207;SHT31;58477;48.072;11.970;2024-01-30T02:45:13;-1.87;97.68
65207;SHT31;58477;48.072;11.970;2024-01-30T02:47:39;-1.84;97.35
65207;SHT31;58477;48.072;11.970;2024-01-30T02:50:04;-1.77;97.38
65207;SHT31;58477;48.072;11.970;2024-01-30T02:52:30;-1.79;98.03
65207;SHT31;58477;48.072;11.970;2024-01-30T02:54:55;-1.94;97.75
65207;SHT31;58477;48.072;11.970;2024-01-30T02:57:21;-2.08;98.08
65207;SHT31;58477;48.072;11.970;2024-01-30T02:59:46;-2.15;98.06
65207;SHT31;58477;48.072;11.970;2024-01-30T03:02:11;-2.13;98.20
65207;SHT31;58477;48.072;11.970;2024-01-30T03:04:37;-1.93;98.57
65207;SHT31;58477;48.072;11.970;2024-01-30T03:07:02;-1.97;98.44
65207;SHT31;58477;48.072;11.970;2024-01-30T03:09:28;-2.08;98.48
65207;SHT31;58477;48.072;11.970;2024-01-30T03:11:54;-2.13;98.64
65207;SHT31;58477;48.072;11.970;2024-01-30T03:14:19;-2.07;99.06
65207;SHT31;58477;48.072;11.970;2024-01-30T03:16:44;-2.04;99.51
65207;SHT31;58477;48.072;11.970;2024-01-30T03:19:10;-1.89;98.45
65207;SHT31;58477;48.072;11.970;2024-01-30T03:21:35;-1.91;98.95
65207;SHT31;58477;48.072;11.970;2024-01-30T03:24:01;-1.90;98.71
65207;SHT31;58477;48.072;11.970;2024-01-30T03:26:26;-1.87;98.39
65207;SHT31;58477;48.072;11.970;2024-01-30T03:28:52;-1.89;98.49
65207;SHT31;58477;48.072;11.970;2024-01-30T03:31:17;-2.03;98.17
65207;SHT31;58477;48.072;11.970;2024-01-30T03:33:43;-2.14;98.89
65207;SHT31;58477;48.072;11.970;2024-01-30T03:36:09;-2.18;98.63
65207;SHT31;58477;48.072;11.970;2024-01-30T03:38:34;-1.95;98.75
65207;SHT31;58477;48.072;11.970;2024-01-30T03:41:00;-1.91;98.42
65207;SHT31;58477;48.072;11.970;2024-01-30T03:43:26;-1.90;98.47
65207;SHT31;58477;48.072;11.970;2024-01-30T03:45:51;-2.07;98.50
65207;SHT31;58477;48.072;11.970;2024-01-30T03:48:17;-2.18;98.46
65207;SHT31;58477;48.072;11.970;2024-01-30T03:50:42;-2.35;98.87
65207;SHT31;58477;48.072;11.970;2024-01-30T03:53:07;-2.30;99.98
65207;SHT31;58477;48.072;11.970;2024-01-30T03:55:33;-2.17;99.79
65207;SHT31;58477;48.072;11.970;2024-01-30T03:57:58;-2.03;99.32
65207;SHT31;58477;48.072;11.970;2024-01-30T04:00:23;-2.00;98.84
65207;SHT31;58477;48.072;11.970;2024-01-30T04:02:49;-1.91;98.60
65207;SHT31;58477;48.072;11.970;2024-01-30T04:05:16;-1.73;98.32
65207;SHT31;58477;48.072;11.970;2024-01-30T04:07:41;-1.69;98.11
65207;SHT31;58477;48.072;11.970;2024-01-30T04:10:07;-1.70;97.97
65207;SHT31;58477;48.072;11.970;2024-01-30T04:12:33;-1.80;98.02
65207;SHT31;58477;48.072;11.970;2024-01-30T04:14:58;-1.91;97.87
65207;SHT31;58477;48.072;11.970;2024-01-30T04:17:24;-2.05;98.68
65207;SHT31;58477;48.072;11.970;2024-01-30T04:19:49;-2.01;98.58
65207;SHT31;58477;48.072;11.970;2024-01-30T04:22:14;-1.98;98.34
65207;SHT31;58477;48.072;11.970;2024-01-30T04:24:40;-1.67;97.88
65207;SHT31;58477;48.072;11.970;2024-01-30T04:27:05;-1.62;96.64
65207;SHT31;58477;48.072;11.970;2024-01-30T04:29:31;-1.66;96.80
65207;SHT31;58477;48.072;11.970;2024-01-30T04:31:57;-1.76;96.87
65207;SHT31;58477;48.072;11.970;2024-01-30T04:34:22;-1.69;96.88
65207;SHT31;58477;48.072;11.970;2024-01-30T04:36:48;-1.60;96.59
65207;SHT31;58477;48.072;11.970;2024-01-30T04:39:13;-1.43;96.16
65207;SHT31;58477;48.072;11.970;2024-01-30T04:41:39;-1.50;96.09
65207;SHT31;58477;48.072;11.970;2024-01-30T04:44:05;-1.71;96.38
65207;SHT31;58477;48.072;11.970;2024-01-30T04:46:30;-1.77;97.11
65207;SHT31;58477;48.072;11.970;2024-01-30T04:48:55;-1.76;97.17
65207;SHT31;58477;48.072;11.970;2024-01-30T04:51:21;-1.70;96.72
65207;SHT31;58477;48.072;11.970;2024-01-30T04:53:46;-1.58;96.16
65207;SHT31;58477;48.072;11.970;2024-01-30T04:56:12;-1.48;95.40
65207;SHT31;58477;48.072;11.970;2024-01-30T04:58:37;-1.46;94.86
65207;SHT31;58477;48.072;11.970;2024-01-30T05:01:02;-1.73;95.45
65207;SHT31;58477;48.072;11.970;2024-01-30T05:03:28;-1.83;95.95
65207;SHT31;58477;48.072;11.970;2024-01-30T05:05:53;-1.83;96.11
65207;SHT31;58477;48.072;11.970;2024-01-30T05:08:19;-1.76;96.79
65207;SHT31;58477;48.072;11.970;2024-01-30T05:10:44;-1.63;96.11
65207;SHT31;58477;48.072;11.970;2024-01-30T05:13:09;-1.40;95.09
65207;SHT31;58477;48.072;11.970;2024-01-30T05:15:35;-1.73;95.31
65207;SHT31;58477;48.072;11.970;2024-01-30T05:18:00;-1.91;96.28
65207;SHT31;58477;48.072;11.970;2024-01-30T05:20:26;-1.94;96.34
65207;SHT31;58477;48.072;11.970;2024-01-30T05:22:53;-2.00;96.65
65207;SHT31;58477;48.072;11.970;2024-01-30T05:25:19;-2.03;96.98
65207;SHT31;58477;48.072;11.970;2024-01-30T05:27:44;-2.18;97.36
65207;SHT31;58477;48.072;11.970;2024-01-30T05:30:10;-2.30;97.40
65207;SHT31;58477;48.072;11.970;2024-01-30T05:32:35;-2.41;98.00
65207;SHT31;58477;48.072;11.970;2024-01-30T05:35:01;-2.18;98.20
65207;SHT31;58477;48.072;11.970;2024-01-30T05:37:27;-2.15;98.28
65207;SHT31;58477;48.072;11.970;2024-01-30T05:39:52;-2.14;98.49
65207;SHT31;58477;48.072;11.970;2024-01-30T05:42:18;-2.40;98.55
65207;SHT31;58477;48.072;11.970;2024-01-30T05:44:43;-2.31;99.34
65207;SHT31;58477;48.072;11.970;2024-01-30T05:47:08;-2.28;99.43
65207;SHT31;58477;48.072;11.970;2024-01-30T05:49:34;-2.37;98.60
65207;SHT31;58477;48.072;11.970;2024-01-30T05:52:01;-2.56;99.23
65207;SHT31;58477;48.072;11.970;2024-01-30T05:54:27;-2.70;99.11
65207;SHT31;58477;48.072;11.970;2024-01-30T05:56:52;-2.79;99.49
65207;SHT31;58477;48.072;11.970;2024-01-30T05:59:18;-2.83;99.64
65207;SHT31;58477;48.072;11.970;2024-01-30T06:01:47;-2.83;99.93
65207;SHT31;58477;48.072;11.970;2024-01-30T06:04:13;-2.52;99.99
65207;SHT31;58477;48.072;11.970;2024-01-30T06:06:38;-2.34;99.95
65207;SHT31;58477;48.072;11.970;2024-01-30T06:09:03;-2.11;99.40
65207;SHT31;58477;48.072;11.970;2024-01-30T06:11:29;-2.23;99.03
65207;SHT31;58477;48.072;11.970;2024-01-30T06:13:54;-2.14;99.06
65207;SHT31;58477;48.072;11.970;2024-01-30T06:16:20;-2.18;98.94
65207;SHT31;58477;48.072;11.970;2024-01-30T06:18:47;-2.17;99.23
65207;SHT31;58477;48.072;11.970;2024-01-30T06:21:13;-2.17;99.11
65207;SHT31;58477;48.072;11.970;2024-01-30T06:23:38;-2.07;99.12
65207;SHT31;58477;48.072;11.970;2024-01-30T06:26:04;-1.93;98.81
65207;SHT31;58477;48.072;11.970;2024-01-30T06:28:30;-1.74;98.62
65207;SHT31;58477;48.072;11.970;2024-01-30T06:30:55;-1.71;97.75
65207;SHT31;58477;48.072;11.970;2024-01-30T06:33:21;-1.73;97.69
65207;SHT31;58477;48.072;11.970;2024-01-30T06:35:46;-1.70;97.50
65207;SHT31;58477;48.072;11.970;2024-01-30T06:38:11;-1.59;97.62
65207;SHT31;58477;48.072;11.970;2024-01-30T06:40:38;-1.58;96.69
65207;SHT31;58477;48.072;11.970;2024-01-30T06:43:04;-1.64;96.65
65207;SHT31;58477;48.072;11.970;2024-01-30T06:45:30;-1.55;97.03
65207;SHT31;58477;48.072;11.970;2024-01-30T06:47:55;-1.38;96.13
65207;SHT31;58477;48.072;11.970;2024-01-30T06:50:20;-1.32;95.88
65207;SHT31;58477;48.072;11.970;2024-01-30T06:52:46;-1.29;95.78
65207;SHT31;58477;48.072;11.970;2024-01-30T06:55:11;-1.29;95.05
65207;SHT31;58477;48.072;11.970;2024-01-30T06:57:37;-1.40;95.42
65207;SHT31;58477;48.072;11.970;2024-01-30T07:00:03;-1.40;95.45
65207;SHT31;58477;48.072;11.970;2024-01-30T07:02:28;-1.46;95.69
65207;SHT31;58477;48.072;11.970;2024-01-30T07:04:54;-1.31;95.86
65207;SHT31;58477;48.072;11.970;2024-01-30T07:07:19;-1.26;95.83
65207;SHT31;58477;48.072;11.970;2024-01-30T07:09:45;-1.02;94.99
65207;SHT31;58477;48.072;11.970;2024-01-30T07:12:10;-0.87;94.81
65207;SHT31;58477;48.072;11.970;2024-01-30T07:14:36;-0.68;93.77
65207;SHT31;58477;48.072;11.970;2024-01-30T07:17:01;-0.56;93.69
65207;SHT31;58477;48.072;11.970;2024-01-30T07:19:27;-0.47;93.35
65207;SHT31;58477;48.072;11.970;2024-01-30T07:21:52;-0.49;93.42
65207;SHT31;58477;48.072;11.970;2024-01-30T07:24:17;-0.38;93.19
65207;SHT31;58477;48.072;11.970;2024-01-30T07:26:43;-0.23;93.30
65207;SHT31;58477;48.072;11.970;2024-01-30T07:29:08;-0.27;93.32
65207;SHT31;58477;48.072;11.970;2024-01-30T07:31:34;-0.27;93.37
65207;SHT31;58477;48.072;11.970;2024-01-30T07:33:59;-0.11;93.40
65207;SHT31;58477;48.072;11.970;2024-01-30T07:36:24;-0.02;93.01
65207;SHT31;58477;48.072;11.970;2024-01-30T07:38:50;0.01;92.81
65207;SHT31;58477;48.072;11.970;2024-01-30T07:41:15;0.13;92.38
65207;SHT31;58477;48.072;11.970;2024-01-30T07:43:41;0.32;91.95
65207;SHT31;58477;48.072;11.970;2024-01-30T07:46:06;0.42;91.96
65207;SHT31;58477;48.072;11.970;2024-01-30T07:48:33;0.62;91.36
65207;SHT31;58477;48.072;11.970;2024-01-30T07:50:59;0.79;90.28
65207;SHT31;58477;48.072;11.970;2024-01-30T07:53:25;1.03;90.95
65207;SHT31;58477;48.072;11.970;2024-01-30T07:55:50;1.44;90.07
65207;SHT31;58477;48.072;11.970;2024-01-30T07:58:16;2.87;87.21
65207;SHT31;58477;48.072;11.970;2024-01-30T08:00:41;3.98;84.45
65207;SHT31;58477;48.072;11.970;2024-01-30T08:03:06;5.36;79.71
65207;SHT31;58477;48.072;11.970;2024-01-30T08:05:32;7.22;72.68
65207;SHT31;58477;48.072;11.970;2024-01-30T08:07:57;8.35;68.18
65207;SHT31;58477;48.072;11.970;2024-01-30T08:10:23;8.58;67.46
65207;SHT31;58477;48.072;11.970;2024-01-30T08:12:48;8.54;68.12
65207;SHT31;58477;48.072;11.970;2024-01-30T08:15:14;9.74;65.09
65207;SHT31;58477;48.072;11.970;2024-01-30T08:17:39;10.73;65.14
65207;SHT31;58477;48.072;11.970;2024-01-30T08:20:06;10.95;61.25
65207;SHT31;58477;48.072;11.970;2024-01-30T08:22:33;11.24;63.26
65207;SHT31;58477;48.072;11.970;2024-01-30T08:24:58;12.41;58.87
65207;SHT31;58477;48.072;11.970;2024-01-30T08:27:24;11.61;57.50
65207;SHT31;58477;48.072;11.970;2024-01-30T08:29:49;11.38;57.36
65207;SHT31;58477;48.072;11.970;2024-01-30T08:32:15;11.75;56.51
65207;SHT31;58477;48.072;11.970;2024-01-30T08:34:41;11.12;58.30
65207;SHT31;58477;48.072;11.970;2024-01-30T08:37:07;11.50;59.64
65207;SHT31;58477;48.072;11.970;2024-01-30T08:39:32;11.70;58.47
65207;SHT31;58477;48.072;11.970;2024-01-30T08:41:58;12.66;54.95
65207;SHT31;58477;48.072;11.970;2024-01-30T08:44:23;14.02;54.69
65207;SHT31;58477;48.072;11.970;2024-01-30T08:46:48;14.76;51.64
65207;SHT31;58477;48.072;11.970;2024-01-30T08:49:16;14.60;49.84
65207;SHT31;58477;48.072;11.970;2024-01-30T08:51:41;12.65;52.27
65207;SHT31;58477;48.072;11.970;2024-01-30T08:54:07;13.00;52.08
65207;SHT31;58477;48.072;11.970;2024-01-30T08:56:32;12.80;52.01
65207;SHT31;58477;48.072;11.970;2024-01-30T08:58:58;12.67;51.79
65207;SHT31;58477;48.072;11.970;2024-01-30T09:01:25;13.50;50.80
65207;SHT31;58477;48.072;11.970;2024-01-30T09:03:50;13.30;52.21
65207;SHT31;58477;48.072;11.970;2024-01-30T09:06:15;13.92;50.87
65207;SHT31;58477;48.072;11.970;2024-01-30T09:08:41;13.64;53.95
65207;SHT31;58477;48.072;11.970;2024-01-30T09:11:11;14.22;53.34
65207;SHT31;58477;48.072;11.970;2024-01-30T09:13:36;14.46;54.78
65207;SHT31;58477;48.072;11.970;2024-01-30T09:16:03;15.07;49.80
65207;SHT31;58477;48.072;11.970;2024-01-30T09:18:28;14.35;51.08
65207;SHT31;58477;48.072;11.970;2024-01-30T09:20:53;14.11;50.66
65207;SHT31;58477;48.072;11.970;2024-01-30T09:23:19;13.00;52.60
65207;SHT31;58477;48.072;11.970;2024-01-30T09:25:45;13.92;51.63
65207;SHT31;58477;48.072;11.970;2024-01-30T09:28:10;14.09;51.17
65207;SHT31;58477;48.072;11.970;2024-01-30T09:30:36;14.05;49.94
65207;SHT31;58477;48.072;11.970;2024-01-30T09:33:01;13.85;51.84
65207;SHT31;58477;48.072;11.970;2024-01-30T09:35:27;13.91;50.68
65207;SHT31;58477;48.072;11.970;2024-01-30T09:37:52;14.43;49.78
65207;SHT31;58477;48.072;11.970;2024-01-30T09:40:18;12.41;53.98
65207;SHT31;58477;48.072;11.970;2024-01-30T09:42:47;12.95;52.81
65207;SHT31;58477;48.072;11.970;2024-01-30T09:45:14;13.16;52.32
65207;SHT31;58477;48.072;11.970;2024-01-30T09:47:41;12.99;53.26
65207;SHT31;58477;48.072;11.970;2024-01-30T09:50:11;12.93;53.57
65207;SHT31;58477;48.072;11.970;2024-01-30T09:52:37;12.65;55.22
65207;SHT31;58477;48.072;11.970;2024-01-30T09:55:12;12.87;54.18
65207;SHT31;58477;48.072;11.970;2024-01-30T09:57:42;14.65;51.45
65207;SHT31;58477;48.072;11.970;2024-01-30T10:00:17;13.43;51.45
65207;SHT31;58477;48.072;11.970;2024-01-30T10:02:50;14.99;51.28
65207;SHT31;58477;48.072;11.970;2024-01-30T10:05:28;15.45;50.92
65207;SHT31;58477;48.072;11.970;2024-01-30T10:08:08;15.48;50.46
65207;SHT31;58477;48.072;11.970;2024-01-30T10:10:37;16.01;50.08
65207;SHT31;58477;48.072;11.970;2024-01-30T10:13:10;15.99;49.38
65207;SHT31;58477;48.072;11.970;2024-01-30T10:15:47;15.85;50.67
65207;SHT31;58477;48.072;11.970;2024-01-30T10:18:22;15.64;54.90
65207;SHT31;58477;48.072;11.970;2024-01-30T10:20:54;13.92;55.41
65207;SHT31;58477;48.072;11.970;2024-01-30T10:23:25;15.50;53.79
65207;SHT31;58477;48.072;11.970;2024-01-30T10:25:54;15.57;53.21
65207;SHT31;58477;48.072;11.970;2024-01-30T10:28:23;15.53;53.01
65207;SHT31;58477;48.072;11.970;2024-01-30T10:31:00;16.62;50.49
65207;SHT31;58477;48.072;11.970;2024-01-30T10:33:32;16.79;50.07
65207;SHT31;58477;48.072;11.970;2024-01-30T10:36:01;17.06;49.57
65207;SHT31;58477;48.072;11.970;2024-01-30T10:38:32;16.18;50.60
65207;SHT31;58477;48.072;11.970;2024-01-30T10:40:59;16.16;51.51
65207;SHT31;58477;48.072;11.970;2024-01-30T10:43:35;16.66;50.77
65207;SHT31;58477;48.072;11.970;2024-01-30T10:46:20;16.04;48.91
65207;SHT31;58477;48.072;11.970;2024-01-30T10:49:00;15.85;49.92
65207;SHT31;58477;48.072;11.970;2024-01-30T10:51:31;16.73;48.97
65207;SHT31;58477;48.072;11.970;2024-01-30T10:54:10;16.64;48.53
65207;SHT31;58477;48.072;11.970;2024-01-30T10:56:38;16.56;49.21
65207;SHT31;58477;48.072;11.970;2024-01-30T10:59:07;16.81;47.12
65207;SHT31;58477;48.072;11.970;2024-01-30T11:01:44;15.79;48.41
65207;SHT31;58477;48.072;11.970;2024-01-30T11:04:13;16.62;47.38
65207;SHT31;58477;48.072;11.970;2024-01-30T11:06:42;16.23;46.77
65207;SHT31;58477;48.072;11.970;2024-01-30T11:09:11;16.59;45.13
65207;SHT31;58477;48.072;11.970;2024-01-30T11:11:51;16.18;46.87
65207;SHT31;58477;48.072;11.970;2024-01-30T11:14:26;16.29;47.02
65207;SHT31;58477;48.072;11.970;2024-01-30T11:17:03;15.38;49.80
65207;SHT31;58477;48.072;11.970;2024-01-30T11:19:35;14.35;51.62
65207;SHT31;58477;48.072;11.970;2024-01-30T11:22:22;14.16;53.28
65207;SHT31;58477;48.072;11.970;2024-01-30T11:24:55;14.58;51.74
65207;SHT31;58477;48.072;11.970;2024-01-30T11:27:21;15.64;51.51
65207;SHT31;58477;48.072;11.970;2024-01-30T11:29:52;15.54;51.76
65207;SHT31;58477;48.072;11.970;2024-01-30T11:32:25;15.48;51.78
65207;SHT31;58477;48.072;11.970;2024-01-30T11:34:54;15.43;51.98
65207;SHT31;58477;48.072;11.970;2024-01-30T11:37:21;14.72;52.61
65207;SHT31;58477;48.072;11.970;2024-01-30T11:39:53;15.48;52.61
65207;SHT31;58477;48.072;11.970;2024-01-30T11:42:31;15.91;50.91
65207;SHT31;58477;48.072;11.970;2024-01-30T11:45:02;15.47;51.32
65207;SHT31;58477;48.072;11.970;2024-01-30T11:47:35;15.37;51.10
65207;SHT31;58477;48.072;11.970;2024-01-30T11:50:14;15.69;51.30
65207;SHT31;58477;48.072;11.970;2024-01-30T11:52:46;15.77;50.48
65207;SHT31;58477;48.072;11.970;2024-01-30T11:55:16;16.01;49.92
65207;SHT31;58477;48.072;11.970;2024-01-30T11:57:46;16.57;48.05
65207;SHT31;58477;48.072;11.970;2024-01-30T12:00:24;15.45;49.40
65207;SHT31;58477;48.072;11.970;2024-01-30T12:03:11;16.15;48.09
65207;SHT31;58477;48.072;11.970;2024-01-30T12:05:39;17.34;47.43
65207;SHT31;58477;48.072;11.970;2024-01-30T12:08:15;16.94;46.67
65207;SHT31;58477;48.072;11.970;2024-01-30T12:11:01;16.81;46.18
65207;SHT31;58477;48.072;11.970;2024-01-30T12:13:30;16.10;47.89
65207;SHT31;58477;48.072;11.970;2024-01-30T12:16:17;15.85;48.22
65207;SHT31;58477;48.072;11.970;2024-01-30T12:18:48;15.67;48.03
65207;SHT31;58477;48.072;11.970;2024-01-30T12:21:21;15.43;47.68
65207;SHT31;58477;48.072;11.970;2024-01-30T12:23:49;14.32;49.63
65207;SHT31;58477;48.072;11.970;2024-01-30T12:26:15;13.50;50.59
65207;SHT31;58477;48.072;11.970;2024-01-30T12:28:54;13.50;49.76
65207;SHT31;58477;48.072;11.970;2024-01-30T12:31:39;13.30;49.73
65207;SHT31;58477;48.072;11.970;2024-01-30T12:34:20;13.10;50.39
65207;SHT31;58477;48.072;11.970;2024-01-30T12:36:48;13.13;51.09
65207;SHT31;58477;48.072;11.970;2024-01-30T12:39:24;13.31;50.84
65207;SHT31;58477;48.072;11.970;2024-01-30T12:42:07;13.30;52.01
65207;SHT31;58477;48.072;11.970;2024-01-30T12:44:41;13.37;51.66
65207;SHT31;58477;48.072;11.970;2024-01-30T12:47:29;13.31;51.42
65207;SHT31;58477;48.072;11.970;2024-01-30T12:49:58;13.17;52.54
65207;SHT31;58477;48.072;11.970;2024-01-30T12:52:38;13.07;52.47
65207;SHT31;58477;48.072;11.970;2024-01-30T12:55:13;12.77;54.12
65207;SHT31;58477;48.072;11.970;2024-01-30T12:57:43;12.62;54.19
65207;SHT31;58477;48.072;11.970;2024-01-30T13:00:14;12.65;53.90
65207;SHT31;58477;48.072;11.970;2024-01-30T13:02:45;12.72;53.43
65207;SHT31;58477;48.072;11.970;2024-01-30T13:05:16;12.67;53.86
65207;SHT31;58477;48.072;11.970;2024-01-30T13:08:02;12.66;54.09
65207;SHT31;58477;48.072;11.970;2024-01-30T13:10:31;12.55;54.36
65207;SHT31;58477;48.072;11.970;2024-01-30T13:12:56;12.49;53.88
65207;SHT31;58477;48.072;11.970;2024-01-30T13:15:21;12.57;54.05
65207;SHT31;58477;48.072;11.970;2024-01-30T13:17:48;12.66;54.70
65207;SHT31;58477;48.072;11.970;2024-01-30T13:20:15;12.60;54.59
65207;SHT31;58477;48.072;11.970;2024-01-30T13:22:44;12.67;54.71
65207;SHT31;58477;48.072;11.970;2024-01-30T13:25:10;12.60;54.56
65207;SHT31;58477;48.072;11.970;2024-01-30T13:27:37;12.36;56.42
65207;SHT31;58477;48.072;11.970;2024-01-30T13:30:03;12.25;56.89
65207;SHT31;58477;48.072;11.970;2024-01-30T13:32:29;12.29;57.50
65207;SHT31;58477;48.072;11.970;2024-01-30T13:34:54;12.12;58.40
65207;SHT31;58477;48.072;11.970;2024-01-30T13:37:19;12.20;57.93
65207;SHT31;58477;48.072;11.970;2024-01-30T13:39:45;12.18;60.26
65207;SHT31;58477;48.072;11.970;2024-01-30T13:42:10;12.24;63.03
65207;SHT31;58477;48.072;11.970;2024-01-30T13:44:36;12.02;63.92
65207;SHT31;58477;48.072;11.970;2024-01-30T13:47:02;11.95;63.98
65207;SHT31;58477;48.072;11.970;2024-01-30T13:49:27;11.77;63.34
65207;SHT31;58477;48.072;11.970;2024-01-30T13:51:53;11.80;64.53
65207;SHT31;58477;48.072;11.970;2024-01-30T13:54:18;11.82;64.23
65207;SHT31;58477;48.072;11.970;2024-01-30T13:56:43;11.82;65.54
65207;SHT31;58477;48.072;11.970;2024-01-30T13:59:09;11.75;65.38
65207;SHT31;58477;48.072;11.970;2024-01-30T14:01:34;11.71;65.46
65207;SHT31;58477;48.072;11.970;2024-01-30T14:03:59;11.78;64.34
65207;SHT31;58477;48.072;11.970;2024-01-30T14:06:25;11.80;64.31
65207;SHT31;58477;48.072;11.970;2024-01-30T14:08:50;11.74;64.06
65207;SHT31;58477;48.072;11.970;2024-01-30T14:11:16;11.66;64.48
65207;SHT31;58477;48.072;11.970;2024-01-30T14:13:41;11.75;64.51
65207;SHT31;58477;48.072;11.970;2024-01-30T14:16:06;11.73;64.56
65207;SHT31;58477;48.072;11.970;2024-01-30T14:18:32;11.75;64.58
65207;SHT31;58477;48.072;11.970;2024-01-30T14:20:57;11.77;64.79
65207;SHT31;58477;48.072;11.970;2024-01-30T14:23:23;11.91;63.98
65207;SHT31;58477;48.072;11.970;2024-01-30T14:25:49;11.95;63.92
65207;SHT31;58477;48.072;11.970;2024-01-30T14:28:14;11.95;64.13
65207;SHT31;58477;48.072;11.970;2024-01-30T14:30:40;11.80;64.92
65207;SHT31;58477;48.072;11.970;2024-01-30T14:33:05;11.82;64.76
65207;SHT31;58477;48.072;11.970;2024-01-30T14:35:32;11.78;65.12
65207;SHT31;58477;48.072;11.970;2024-01-30T14:37:57;11.81;65.18
65207;SHT31;58477;48.072;11.970;2024-01-30T14:40:22;11.74;65.13
65207;SHT31;58477;48.072;11.970;2024-01-30T14:42:48;11.67;65.96
65207;SHT31;58477;48.072;11.970;2024-01-30T14:45:14;11.60;65.11
65207;SHT31;58477;48.072;11.970;2024-01-30T14:47:39;11.64;64.62
65207;SHT31;58477;48.072;11.970;2024-01-30T14:50:06;11.54;65.37
65207;SHT31;58477;48.072;11.970;2024-01-30T14:52:31;11.51;65.29
65207;SHT31;58477;48.072;11.970;2024-01-30T14:54:57;11.38;65.35
65207;SHT31;58477;48.072;11.970;2024-01-30T14:57:24;11.44;65.88
65207;SHT31;58477;48.072;11.970;2024-01-30T14:59:49;11.30;65.93
65207;SHT31;58477;48.072;11.970;2024-01-30T15:02:15;11.20;65.80
65207;SHT31;58477;48.072;11.970;2024-01-30T15:04:40;11.27;65.75
65207;SHT31;58477;48.072;11.970;2024-01-30T15:07:05;11.27;66.48
65207;SHT31;58477;48.072;11.970;2024-01-30T15:09:31;11.28;65.80
65207;SHT31;58477;48.072;11.970;2024-01-30T15:11:56;11.10;65.83
65207;SHT31;58477;48.072;11.970;2024-01-30T15:14:23;10.99;66.19
65207;SHT31;58477;48.072;11.970;2024-01-30T15:16:48;11.00;66.38
65207;SHT31;58477;48.072;11.970;2024-01-30T15:19:14;10.93;66.68